Time;durP1;ratioP1;P1;durP2;ratioP2;P2;SDS_P1;SDS_P2;PMS_P1;PMS_P2;Temp;Humidity;BMP_temperature;BMP_pressure;BME280_temperature;BME280_humidity;BME280_pressure;Samples;Min_cycle;Max_cycle;Signal;HPM_P1;HPM_P2
2022/10/17 00:01:05;;;;;;;14.77;7.93;;;;;;;;;;5112452;28;20024;-63
2022/10/17 00:03:31;;;;;;;12.88;8.13;;;;;;;;;;5112192;28;20064;-62
2022/10/17 00:05:57;;;;;;;12.13;7.47;;;;;;;;;;5112289;28;20119;-60
2022/10/17 00:08:23;;;;;;;10.88;7.30;;;;;;;;;;5112218;28;20039;-62
2022/10/17 00:10:57;;;;;;;12.48;6.75;;;;;;;;;;5112511;28;20023;-63
2022/10/17 00:13:23;;;;;;;13.02;7.75;;;;;;;;;;5112605;28;20379;-71
2022/10/17 00:15:49;;;;;;;15.43;7.95;;;;;;;;;;5112298;28;20048;-66
2022/10/17 00:18:15;;;;;;;14.27;7.60;;;;;;;;;;5112185;28;20485;-62
2022/10/17 00:20:41;;;;;;;14.23;7.45;;;;;;;;;;5112327;28;20489;-59
2022/10/17 00:23:07;;;;;;;12.25;7.10;;;;;;;;;;5111997;28;20144;-60
2022/10/17 00:25:33;;;;;;;12.25;7.30;;;;;;;;;;5112153;28;20526;-59
2022/10/17 00:27:59;;;;;;;13.10;7.43;;;;;;;;;;5112082;28;20047;-66
2022/10/17 00:30:25;;;;;;;11.82;7.28;;;;;;;;;;5111927;28;20020;-62
2022/10/17 00:32:51;;;;;;;11.45;7.03;;;;;;;;;;5111669;28;20027;-59
2022/10/17 00:35:17;;;;;;;13.98;7.65;;;;;;;;;;5111631;28;20379;-66
2022/10/17 00:37:43;;;;;;;14.80;7.10;;;;;;;;;;5111877;28;20027;-61
2022/10/17 00:40:09;;;;;;;14.90;7.43;;;;;;;;;;5111989;28;20028;-69
2022/10/17 00:42:35;;;;;;;14.65;6.70;;;;;;;;;;5111955;28;20019;-68
2022/10/17 00:45:05;;;;;;;12.90;7.40;;;;;;;;;;5111815;28;20023;-71
2022/10/17 00:47:31;;;;;;;12.52;6.88;;;;;;;;;;5111859;28;20031;-66
2022/10/17 00:49:58;;;;;;;12.65;6.50;;;;;;;;;;5111790;28;20048;-60
2022/10/17 00:52:25;;;;;;;9.45;6.40;;;;;;;;;;5111501;28;20032;-60
2022/10/17 00:54:53;;;;;;;9.52;6.00;;;;;;;;;;5111489;28;20072;-68
2022/10/17 00:57:20;;;;;;;15.00;6.78;;;;;;;;;;5111928;28;20036;-65
2022/10/17 00:59:49;;;;;;;13.25;6.93;;;;;;;;;;5111325;28;20131;-60
2022/10/17 01:02:17;;;;;;;11.10;6.20;;;;;;;;;;5093446;28;20027;-67
2022/10/17 01:04:44;;;;;;;14.25;7.00;;;;;;;;;;5111673;28;20080;-66
2022/10/17 01:07:10;;;;;;;11.35;6.25;;;;;;;;;;5111531;28;20032;-66
2022/10/17 01:09:37;;;;;;;14.55;6.50;;;;;;;;;;5111515;28;20023;-61
2022/10/17 01:12:07;;;;;;;13.73;6.75;;;;;;;;;;5111590;28;20032;-60
2022/10/17 01:14:45;;;;;;;11.57;6.20;;;;;;;;;;5111648;28;20023;-60
2022/10/17 01:17:13;;;;;;;10.05;6.30;;;;;;;;;;5111057;28;20134;-60
2022/10/17 01:19:58;;;;;;;12.02;6.47;;;;;;;;;;5111484;28;20058;-60
2022/10/17 01:22:31;;;;;;;11.73;6.80;;;;;;;;;;5111350;28;20051;-62
2022/10/17 01:25:09;;;;;;;9.70;6.32;;;;;;;;;;5111452;28;20051;-60
2022/10/17 01:27:51;;;;;;;13.57;5.97;;;;;;;;;;5111302;28;20391;-60
2022/10/17 01:30:23;;;;;;;11.25;6.03;;;;;;;;;;5111417;28;20020;-66
2022/10/17 01:32:54;;;;;;;10.70;6.03;;;;;;;;;;5111133;28;20036;-63
2022/10/17 01:35:25;;;;;;;13.63;7.10;;;;;;;;;;5111326;28;20386;-60
2022/10/17 01:37:58;;;;;;;7.25;5.30;;;;;;;;;;5111170;28;20032;-62
2022/10/17 01:40:31;;;;;;;13.68;6.82;;;;;;;;;;5111031;28;20024;-60
2022/10/17 01:43:15;;;;;;;14.02;6.85;;;;;;;;;;5111211;28;20097;-60
2022/10/17 01:45:48;;;;;;;10.60;6.57;;;;;;;;;;5111142;28;20497;-60
2022/10/17 01:48:13;;;;;;;;;;;;;;;;;;5111709;28;20065;-60
2022/10/17 01:50:45;;;;;;;12.77;6.70;;;;;;;;;;5111103;28;19908;-60
2022/10/17 01:53:24;;;;;;;11.93;6.75;;;;;;;;;;5110985;28;20050;-58
2022/10/17 01:55:52;;;;;;;11.98;6.40;;;;;;;;;;5111383;28;20535;-70
2022/10/17 01:58:32;;;;;;;13.93;6.82;;;;;;;;;;5111066;28;20522;-60
2022/10/17 02:01:04;;;;;;;9.75;6.18;;;;;;;;;;5093219;28;20374;-72
2022/10/17 02:03:31;;;;;;;13.17;6.47;;;;;;;;;;5115143;28;20032;-62
2022/10/17 02:05:57;;;;;;;11.85;6.50;;;;;;;;;;5114877;28;20280;-71
2022/10/17 02:08:27;;;;;;;13.50;6.85;;;;;;;;;;5114538;28;20493;-61
2022/10/17 02:11:01;;;;;;;11.18;6.38;;;;;;;;;;5114715;28;20493;-60
2022/10/17 02:13:34;;;;;;;11.98;6.60;;;;;;;;;;5114862;28;20028;-70
2022/10/17 02:16:15;;;;;;;11.63;6.50;;;;;;;;;;5114269;28;20096;-60
2022/10/17 02:18:59;;;;;;;10.48;6.45;;;;;;;;;;5114854;28;20020;-60
2022/10/17 02:21:31;;;;;;;12.15;6.60;;;;;;;;;;5114731;28;20028;-60
2022/10/17 02:23:57;;;;;;;;;;;;;;;;;;5115058;28;20538;-61
2022/10/17 02:26:30;;;;;;;11.93;7.20;;;;;;;;;;5114876;28;19994;-59
2022/10/17 02:29:02;;;;;;;9.10;5.78;;;;;;;;;;5114628;28;20106;-59
2022/10/17 02:31:33;;;;;;;12.68;6.95;;;;;;;;;;5114244;28;20024;-60
2022/10/17 02:34:02;;;;;;;15.07;7.27;;;;;;;;;;5114449;28;20027;-62
2022/10/17 02:36:30;;;;;;;11.07;6.15;;;;;;;;;;5114123;28;20032;-72
2022/10/17 02:38:56;;;;;;;10.77;6.63;;;;;;;;;;5114374;28;20026;-60
2022/10/17 02:41:23;;;;;;;11.75;6.53;;;;;;;;;;5114241;28;20427;-62
2022/10/17 02:43:50;;;;;;;12.55;6.35;;;;;;;;;;5114459;28;20034;-58
2022/10/17 02:46:19;;;;;;;13.52;6.72;;;;;;;;;;5113852;28;20038;-58
2022/10/17 02:48:55;;;;;;;11.15;6.47;;;;;;;;;;5113855;28;20039;-62
2022/10/17 02:51:39;;;;;;;9.65;6.72;;;;;;;;;;5114097;28;20028;-59
2022/10/17 02:54:14;;;;;;;13.38;7.40;;;;;;;;;;5113625;28;20035;-59
2022/10/17 02:56:47;;;;;;;15.73;7.60;;;;;;;;;;5113800;28;20035;-59
2022/10/17 02:59:12;;;;;;;;;;;;;;;;;;5114194;28;20088;-61
2022/10/17 03:01:39;;;;;;;13.02;7.28;;;;;;;;;;5113626;28;19904;-60
2022/10/17 03:04:06;;;;;;;17.67;7.70;;;;;;;;;;5113578;28;20747;-60
2022/10/17 03:06:32;;;;;;;12.20;7.93;;;;;;;;;;5113477;28;20031;-60
2022/10/17 03:08:58;;;;;;;12.52;7.63;;;;;;;;;;5113619;28;20486;-62
2022/10/17 03:11:24;;;;;;;13.90;7.88;;;;;;;;;;5113690;28;20364;-61
2022/10/17 03:13:50;;;;;;;12.10;6.68;;;;;;;;;;5113369;28;20499;-67
2022/10/17 03:16:16;;;;;;;11.75;7.18;;;;;;;;;;5113015;28;20491;-62
2022/10/17 03:18:42;;;;;;;12.48;7.70;;;;;;;;;;5113613;28;20149;-60
2022/10/17 03:21:08;;;;;;;12.27;7.00;;;;;;;;;;5113517;28;20100;-60
2022/10/17 03:23:34;;;;;;;12.13;6.97;;;;;;;;;;5113505;28;20051;-59
2022/10/17 03:26:04;;;;;;;9.93;6.95;;;;;;;;;;5113198;28;20031;-64
2022/10/17 03:28:30;;;;;;;15.77;7.45;;;;;;;;;;5113341;28;20503;-59
2022/10/17 03:30:56;;;;;;;13.60;7.00;;;;;;;;;;5113332;28;20030;-64
2022/10/17 03:33:22;;;;;;;11.00;7.00;;;;;;;;;;5113098;28;20015;-60
2022/10/17 03:35:48;;;;;;;10.90;6.53;;;;;;;;;;5093919;28;20468;-60
2022/10/17 03:38:14;;;;;;;12.00;6.72;;;;;;;;;;5113188;28;20103;-60
2022/10/17 03:40:40;;;;;;;14.40;7.57;;;;;;;;;;5113142;28;20069;-60
2022/10/17 03:43:06;;;;;;;15.23;7.97;;;;;;;;;;5113246;28;20047;-59
2022/10/17 03:45:32;;;;;;;13.20;7.22;;;;;;;;;;5112750;28;20027;-64
2022/10/17 03:47:58;;;;;;;17.98;7.53;;;;;;;;;;5113165;28;20130;-60
2022/10/17 03:50:25;;;;;;;14.40;7.88;;;;;;;;;;5113219;28;20032;-60
2022/10/17 03:52:51;;;;;;;12.85;7.22;;;;;;;;;;5112634;28;20032;-72
2022/10/17 03:55:17;;;;;;;12.88;7.65;;;;;;;;;;5113048;28;20148;-60
2022/10/17 03:57:43;;;;;;;12.18;7.65;;;;;;;;;;5112911;28;20114;-60
2022/10/17 04:00:09;;;;;;;12.27;7.28;;;;;;;;;;5112758;28;20055;-60
2022/10/17 04:02:35;;;;;;;14.82;7.93;;;;;;;;;;5112652;28;20031;-68
2022/10/17 04:05:01;;;;;;;12.13;8.02;;;;;;;;;;5112766;28;20034;-65
2022/10/17 04:07:27;;;;;;;13.70;7.18;;;;;;;;;;5112558;28;20019;-59
2022/10/17 04:09:53;;;;;;;11.52;7.32;;;;;;;;;;5112447;28;20038;-60
2022/10/17 04:12:19;;;;;;;10.02;7.50;;;;;;;;;;5112567;28;20023;-67
2022/10/17 04:14:45;;;;;;;12.90;7.70;;;;;;;;;;5112361;28;20103;-60
2022/10/17 04:17:11;;;;;;;11.73;7.25;;;;;;;;;;5112013;28;20098;-60
2022/10/17 04:19:37;;;;;;;13.68;7.55;;;;;;;;;;5112112;28;20026;-59
2022/10/17 04:22:03;;;;;;;14.43;8.20;;;;;;;;;;5093407;28;20040;-60
2022/10/17 04:24:29;;;;;;;13.18;8.23;;;;;;;;;;5111762;28;20016;-60
2022/10/17 04:26:55;;;;;;;18.67;8.98;;;;;;;;;;5111716;28;20047;-70
2022/10/17 04:29:21;;;;;;;12.50;8.05;;;;;;;;;;5111861;28;20054;-60
2022/10/17 04:31:48;;;;;;;13.27;7.90;;;;;;;;;;5111509;28;20027;-60
2022/10/17 04:34:14;;;;;;;15.13;8.57;;;;;;;;;;5111868;28;20028;-60
2022/10/17 04:36:40;;;;;;;15.18;8.85;;;;;;;;;;5111925;28;20118;-60
2022/10/17 04:39:06;;;;;;;17.40;8.45;;;;;;;;;;5111705;28;20031;-60
2022/10/17 04:41:32;;;;;;;16.45;8.60;;;;;;;;;;5111997;28;20024;-71
2022/10/17 04:43:58;;;;;;;14.77;7.63;;;;;;;;;;5092912;28;20055;-59
2022/10/17 04:46:24;;;;;;;16.20;8.85;;;;;;;;;;5092690;28;20098;-59
2022/10/17 04:48:50;;;;;;;19.45;9.18;;;;;;;;;;5111846;28;20106;-60
2022/10/17 04:51:18;;;;;;;20.38;9.52;;;;;;;;;;5111711;28;20114;-60
2022/10/17 04:53:44;;;;;;;16.60;9.32;;;;;;;;;;5111502;28;20051;-59
2022/10/17 04:56:15;;;;;;;19.00;8.80;;;;;;;;;;5111749;28;20433;-67
2022/10/17 04:58:41;;;;;;;16.33;9.25;;;;;;;;;;5111717;28;20471;-70
2022/10/17 05:01:08;;;;;;;17.25;9.18;;;;;;;;;;5111349;28;20020;-64
2022/10/17 05:03:34;;;;;;;17.98;9.45;;;;;;;;;;5111508;28;20028;-69
2022/10/17 05:06:07;;;;;;;16.48;8.57;;;;;;;;;;5111376;28;20028;-59
2022/10/17 05:08:34;;;;;;;16.48;8.82;;;;;;;;;;5111647;28;20521;-64
2022/10/17 05:11:00;;;;;;;17.25;9.50;;;;;;;;;;5092393;28;20067;-70
2022/10/17 05:13:26;;;;;;;19.15;9.98;;;;;;;;;;5111520;28;20020;-59
2022/10/17 05:15:52;;;;;;;18.38;8.68;;;;;;;;;;5110962;28;20063;-59
2022/10/17 05:18:18;;;;;;;16.80;9.93;;;;;;;;;;5111198;28;20035;-61
2022/10/17 05:20:44;;;;;;;17.58;10.02;;;;;;;;;;5111626;28;20024;-64
2022/10/17 05:23:10;;;;;;;17.42;10.02;;;;;;;;;;5111330;28;20387;-67
2022/10/17 05:25:36;;;;;;;17.67;9.77;;;;;;;;;;5111000;28;20099;-73
2022/10/17 05:28:02;;;;;;;18.77;9.50;;;;;;;;;;5111240;28;20162;-61
2022/10/17 05:30:28;;;;;;;17.90;9.00;;;;;;;;;;5108165;28;20051;-59
2022/10/17 05:32:54;;;;;;;18.08;8.90;;;;;;;;;;5110290;28;20467;-59
2022/10/17 05:35:21;;;;;;;12.52;8.63;;;;;;;;;;5111021;28;20494;-59
2022/10/17 05:37:47;;;;;;;15.18;8.68;;;;;;;;;;5112954;28;20051;-70
2022/10/17 05:40:13;;;;;;;22.02;9.63;;;;;;;;;;5099920;28;20017;-61
2022/10/17 05:42:39;;;;;;;17.40;9.25;;;;;;;;;;5094521;28;20039;-71
2022/10/17 05:45:05;;;;;;;18.55;9.32;;;;;;;;;;5096113;28;20096;-63
2022/10/17 05:47:31;;;;;;;18.55;8.88;;;;;;;;;;5094480;28;20030;-62
2022/10/17 05:49:57;;;;;;;21.27;10.43;;;;;;;;;;5094585;28;20028;-59
2022/10/17 05:52:23;;;;;;;17.23;9.18;;;;;;;;;;5094610;28;20040;-65
2022/10/17 05:54:49;;;;;;;18.10;10.05;;;;;;;;;;5094466;28;20032;-60
2022/10/17 05:57:16;;;;;;;15.80;10.00;;;;;;;;;;5094775;28;20094;-75
2022/10/17 05:59:42;;;;;;;16.10;9.60;;;;;;;;;;5094445;28;20016;-62
2022/10/17 06:02:08;;;;;;;16.90;9.40;;;;;;;;;;5094579;28;20477;-73
2022/10/17 06:04:34;;;;;;;23.63;10.15;;;;;;;;;;5094326;28;20037;-59
2022/10/17 06:07:00;;;;;;;17.40;9.90;;;;;;;;;;5094349;28;20028;-67
2022/10/17 06:09:27;;;;;;;18.90;9.93;;;;;;;;;;5094516;28;20024;-61
2022/10/17 06:11:53;;;;;;;21.75;10.25;;;;;;;;;;5094085;28;20036;-67
2022/10/17 06:14:20;;;;;;;21.13;10.88;;;;;;;;;;5093994;28;20031;-60
2022/10/17 06:16:46;;;;;;;17.65;9.57;;;;;;;;;;5093395;28;20047;-74
2022/10/17 06:19:12;;;;;;;15.40;9.45;;;;;;;;;;5093815;28;20032;-59
2022/10/17 06:21:38;;;;;;;16.63;9.85;;;;;;;;;;5094007;28;20047;-59
2022/10/17 06:24:04;;;;;;;16.33;9.50;;;;;;;;;;5094036;28;20099;-63
2022/10/17 06:26:30;;;;;;;16.23;9.38;;;;;;;;;;5094105;28;20035;-59
2022/10/17 06:28:56;;;;;;;16.40;9.40;;;;;;;;;;5093968;28;20024;-59
2022/10/17 06:31:23;;;;;;;17.02;9.98;;;;;;;;;;5093014;28;20024;-59
2022/10/17 06:33:49;;;;;;;18.73;10.20;;;;;;;;;;5093708;28;20099;-60
2022/10/17 06:36:15;;;;;;;18.00;9.65;;;;;;;;;;5093707;28;20024;-68
2022/10/17 06:38:41;;;;;;;15.80;8.90;;;;;;;;;;5094173;28;20375;-66
2022/10/17 06:41:13;;;;;;;16.35;9.18;;;;;;;;;;5093687;28;20178;-72
2022/10/17 06:43:39;;;;;;;16.55;7.35;;;;;;;;;;5093692;28;20519;-62
2022/10/17 06:46:06;;;;;;;14.75;8.68;;;;;;;;;;5093869;28;20093;-60
2022/10/17 06:48:32;;;;;;;13.48;8.52;;;;;;;;;;5093191;28;20088;-78
2022/10/17 06:50:59;;;;;;;15.25;8.43;;;;;;;;;;5075060;28;20024;-61
2022/10/17 06:53:27;;;;;;;20.25;9.88;;;;;;;;;;5074934;28;20168;-62
2022/10/17 06:55:54;;;;;;;18.38;9.90;;;;;;;;;;5093235;28;20043;-61
2022/10/17 06:58:21;;;;;;;17.20;10.10;;;;;;;;;;5093628;28;20036;-62
2022/10/17 07:00:47;;;;;;;16.73;9.00;;;;;;;;;;5093373;28;20103;-60
2022/10/17 07:03:13;;;;;;;15.45;8.35;;;;;;;;;;5093190;28;20625;-60
2022/10/17 07:05:39;;;;;;;15.27;8.77;;;;;;;;;;5093268;28;20028;-61
2022/10/17 07:08:05;;;;;;;20.42;8.40;;;;;;;;;;5093344;28;20107;-69
2022/10/17 07:10:36;;;;;;;13.75;8.27;;;;;;;;;;5093057;28;20020;-61
2022/10/17 07:13:03;;;;;;;18.38;7.97;;;;;;;;;;5074849;28;20081;-72
2022/10/17 07:15:31;;;;;;;14.35;8.80;;;;;;;;;;5110037;28;20035;-70
2022/10/17 07:17:57;;;;;;;13.63;8.05;;;;;;;;;;5112954;28;20034;-60
2022/10/17 07:20:23;;;;;;;11.40;7.78;;;;;;;;;;5112994;28;20020;-62
2022/10/17 07:22:49;;;;;;;12.88;7.88;;;;;;;;;;5112784;28;20027;-66
2022/10/17 07:25:15;;;;;;;13.30;7.45;;;;;;;;;;5113167;28;20060;-68
2022/10/17 07:27:41;;;;;;;14.82;7.50;;;;;;;;;;5113437;28;20028;-63
2022/10/17 07:30:08;;;;;;;14.35;8.40;;;;;;;;;;5113071;28;20103;-64
2022/10/17 07:32:34;;;;;;;12.77;7.78;;;;;;;;;;5112670;28;20043;-70
2022/10/17 07:35:00;;;;;;;14.55;8.77;;;;;;;;;;5112975;28;20024;-69
2022/10/17 07:37:26;;;;;;;15.52;7.55;;;;;;;;;;5112799;28;20051;-61
2022/10/17 07:39:52;;;;;;;15.10;8.30;;;;;;;;;;5113133;28;20463;-69
2022/10/17 07:42:18;;;;;;;16.17;8.23;;;;;;;;;;5113028;28;20028;-64
2022/10/17 07:44:46;;;;;;;14.73;7.85;;;;;;;;;;5112718;28;20567;-68
2022/10/17 07:47:12;;;;;;;16.23;7.40;;;;;;;;;;5112546;28;20055;-61
2022/10/17 07:49:42;;;;;;;12.90;7.38;;;;;;;;;;5112364;28;20035;-70
2022/10/17 07:52:13;;;;;;;17.65;7.40;;;;;;;;;;5111728;28;20099;-63
2022/10/17 07:54:39;;;;;;;10.18;6.65;;;;;;;;;;5112277;28;20024;-64
2022/10/17 07:57:05;;;;;;;14.10;6.65;;;;;;;;;;5112582;28;20491;-64
2022/10/17 07:59:32;;;;;;;11.25;7.05;;;;;;;;;;5112088;28;20027;-67
2022/10/17 08:01:58;;;;;;;9.50;6.03;;;;;;;;;;5112190;28;20132;-61
2022/10/17 08:04:24;;;;;;;13.10;6.57;;;;;;;;;;5098871;28;20039;-66
2022/10/17 08:06:50;;;;;;;10.55;6.45;;;;;;;;;;5092214;28;20035;-61
2022/10/17 08:09:16;;;;;;;11.20;6.30;;;;;;;;;;5091745;28;20028;-65
2022/10/17 08:11:42;;;;;;;11.10;5.90;;;;;;;;;;5091106;28;20028;-60
2022/10/17 08:14:09;;;;;;;11.55;5.45;;;;;;;;;;5096993;28;20535;-67
2022/10/17 08:16:35;;;;;;;13.13;5.90;;;;;;;;;;5091456;28;20447;-61
2022/10/17 08:19:01;;;;;;;9.90;5.63;;;;;;;;;;5100512;28;20020;-61
2022/10/17 08:21:27;;;;;;;12.23;5.90;;;;;;;;;;5094195;28;20035;-60
2022/10/17 08:23:53;;;;;;;10.07;5.75;;;;;;;;;;5101845;28;20024;-67
2022/10/17 08:26:19;;;;;;;10.50;6.10;;;;;;;;;;5102608;28;20043;-71
2022/10/17 08:28:45;;;;;;;10.75;5.50;;;;;;;;;;5100518;28;20396;-61
2022/10/17 08:31:13;;;;;;;13.05;6.28;;;;;;;;;;5101762;28;20102;-60
2022/10/17 08:33:39;;;;;;;9.23;5.75;;;;;;;;;;5099467;28;20015;-69
2022/10/17 08:36:06;;;;;;;9.75;5.55;;;;;;;;;;5097915;28;20038;-61
2022/10/17 08:38:33;;;;;;;9.55;5.70;;;;;;;;;;5112000;28;20106;-71
2022/10/17 08:41:00;;;;;;;10.70;6.28;;;;;;;;;;5111897;28;20024;-67
2022/10/17 08:43:41;;;;;;;10.82;5.32;;;;;;;;;;5111923;28;20027;-59
2022/10/17 08:46:08;;;;;;;11.48;5.85;;;;;;;;;;5103154;28;20040;-67
2022/10/17 08:48:38;;;;;;;9.52;5.25;;;;;;;;;;5111884;28;20024;-61
2022/10/17 08:51:10;;;;;;;11.88;5.72;;;;;;;;;;5111969;28;20102;-61
2022/10/17 08:53:39;;;;;;;10.60;6.05;;;;;;;;;;5107642;28;20027;-61
2022/10/17 08:56:11;;;;;;;12.52;5.57;;;;;;;;;;5098005;28;20039;-61
2022/10/17 08:58:37;;;;;;;11.60;6.13;;;;;;;;;;5098432;28;20020;-63
2022/10/17 09:01:18;;;;;;;9.50;5.75;;;;;;;;;;5106948;28;20024;-64
2022/10/17 09:04:02;;;;;;;11.38;5.90;;;;;;;;;;5093202;28;20024;-69
2022/10/17 09:06:34;;;;;;;11.05;5.70;;;;;;;;;;5090970;28;20028;-61
2022/10/17 09:09:03;;;;;;;10.30;5.40;;;;;;;;;;5091131;28;20127;-63
2022/10/17 09:11:47;;;;;;;12.95;5.40;;;;;;;;;;5090749;28;20047;-60
2022/10/17 09:14:32;;;;;;;10.23;5.40;;;;;;;;;;5091366;28;20124;-59
2022/10/17 09:17:07;;;;;;;11.60;5.30;;;;;;;;;;5096191;28;20050;-66
2022/10/17 09:19:46;;;;;;;14.50;5.57;;;;;;;;;;5097869;28;20040;-61
2022/10/17 09:22:18;;;;;;;10.00;5.88;;;;;;;;;;5095964;28;20028;-62
2022/10/17 09:24:47;;;;;;;10.23;5.88;;;;;;;;;;5101459;28;20024;-59
2022/10/17 09:27:19;;;;;;;13.20;5.97;;;;;;;;;;5101399;28;20388;-61
2022/10/17 09:29:47;;;;;;;13.15;5.57;;;;;;;;;;5099154;28;20028;-61
2022/10/17 09:32:18;;;;;;;10.90;5.85;;;;;;;;;;5094453;28;20032;-60
2022/10/17 09:34:45;;;;;;;12.25;5.63;;;;;;;;;;5095793;28;20056;-60
2022/10/17 09:37:13;;;;;;;14.38;6.28;;;;;;;;;;5098561;28;20036;-61
2022/10/17 09:39:40;;;;;;;11.05;5.88;;;;;;;;;;5101419;28;20475;-60
2022/10/17 09:42:06;;;;;;;10.88;5.88;;;;;;;;;;5099168;28;20028;-61
2022/10/17 09:44:39;;;;;;;13.13;5.63;;;;;;;;;;5099043;28;20025;-61
2022/10/17 09:47:12;;;;;;;13.38;5.80;;;;;;;;;;5099016;28;20052;-61
2022/10/17 09:49:39;;;;;;;9.43;5.38;;;;;;;;;;5107196;28;20099;-61
2022/10/17 09:52:10;;;;;;;10.88;5.20;;;;;;;;;;5110125;28;20020;-71
2022/10/17 09:54:50;;;;;;;10.95;5.10;;;;;;;;;;5111230;28;20055;-70
2022/10/17 09:57:16;;;;;;;10.98;5.80;;;;;;;;;;5110521;28;20032;-60
2022/10/17 09:59:47;;;;;;;10.13;4.90;;;;;;;;;;5111052;28;20048;-59
2022/10/17 10:02:20;;;;;;;10.27;5.20;;;;;;;;;;5110911;28;20096;-60
2022/10/17 10:04:57;;;;;;;12.73;5.05;;;;;;;;;;5110595;28;20028;-60
2022/10/17 10:07:26;;;;;;;10.95;5.38;;;;;;;;;;5110819;28;20042;-60
2022/10/17 10:09:52;;;;;;;9.70;5.22;;;;;;;;;;5110495;28;20045;-60
2022/10/17 10:12:20;;;;;;;15.18;5.97;;;;;;;;;;5110487;28;20155;-60
2022/10/17 10:14:47;;;;;;;12.98;6.18;;;;;;;;;;5110806;28;20047;-62
2022/10/17 10:17:31;;;;;;;12.70;5.88;;;;;;;;;;5110344;28;20112;-60
2022/10/17 10:19:57;;;;;;;10.93;5.28;;;;;;;;;;5110883;28;20451;-62
2022/10/17 10:22:23;;;;;;;13.30;6.85;;;;;;;;;;5110745;28;20028;-59
2022/10/17 10:25:12;;;;;;;9.15;5.57;;;;;;;;;;5113611;28;20030;-61
2022/10/17 10:27:40;;;;;;;14.55;6.10;;;;;;;;;;5114459;28;20034;-72
2022/10/17 10:30:06;;;;;;;12.93;6.03;;;;;;;;;;5114601;28;20035;-70
2022/10/17 10:32:34;;;;;;;12.48;6.00;;;;;;;;;;5114348;28;20026;-67
2022/10/17 10:35:05;;;;;;;12.32;5.53;;;;;;;;;;5114418;28;20448;-67
2022/10/17 10:37:44;;;;;;;11.48;5.93;;;;;;;;;;5113741;28;20386;-61
2022/10/17 10:40:17;;;;;;;9.95;5.35;;;;;;;;;;5114048;28;20092;-60
2022/10/17 10:42:46;;;;;;;7.88;5.18;;;;;;;;;;5113804;28;20413;-61
2022/10/17 10:45:18;;;;;;;9.25;5.50;;;;;;;;;;5095767;28;20494;-61
2022/10/17 10:47:51;;;;;;;11.63;5.20;;;;;;;;;;5114003;28;20024;-61
2022/10/17 10:50:17;;;;;;;8.80;5.05;;;;;;;;;;5113744;28;20046;-60
2022/10/17 10:52:47;;;;;;;9.23;5.00;;;;;;;;;;5114100;28;20024;-61
2022/10/17 10:55:16;;;;;;;14.52;5.35;;;;;;;;;;5113772;28;20027;-67
2022/10/17 10:57:43;;;;;;;10.88;5.43;;;;;;;;;;5113732;28;20039;-66
2022/10/17 11:00:14;;;;;;;9.48;5.43;;;;;;;;;;5114040;28;20055;-63
2022/10/17 11:02:52;;;;;;;10.07;5.40;;;;;;;;;;5113735;28;20023;-61
2022/10/17 11:05:28;;;;;;;6.97;4.78;;;;;;;;;;5113711;28;20024;-60
2022/10/17 11:08:05;;;;;;;9.70;5.47;;;;;;;;;;5113283;28;20510;-61
2022/10/17 11:10:44;;;;;;;11.18;5.85;;;;;;;;;;5113676;28;20023;-62
2022/10/17 11:13:12;;;;;;;10.38;5.20;;;;;;;;;;5113379;28;20467;-63
2022/10/17 11:15:41;;;;;;;9.45;4.82;;;;;;;;;;5113383;28;20052;-61
2022/10/17 11:18:15;;;;;;;9.30;5.03;;;;;;;;;;5112986;28;20031;-62
2022/10/17 11:21:00;;;;;;;9.50;4.90;;;;;;;;;;5113335;28;20383;-62
2022/10/17 11:23:36;;;;;;;8.52;5.05;;;;;;;;;;5112908;28;20024;-62
2022/10/17 11:26:05;;;;;;;10.45;5.05;;;;;;;;;;5107526;28;20028;-67
2022/10/17 11:28:31;;;;;;;9.90;4.80;;;;;;;;;;5093006;28;20031;-62
2022/10/17 11:30:59;;;;;;;11.40;4.78;;;;;;;;;;5092711;28;20491;-63
2022/10/17 11:33:32;;;;;;;9.00;5.28;;;;;;;;;;5092624;28;20396;-66
2022/10/17 11:36:01;;;;;;;11.25;4.93;;;;;;;;;;5092951;28;20036;-62
2022/10/17 11:38:33;;;;;;;7.97;4.68;;;;;;;;;;5092798;28;20031;-61
2022/10/17 11:40:59;;;;;;;;;;;;;;;;;;5092889;28;20099;-63
2022/10/17 11:43:30;;;;;;;10.80;4.60;;;;;;;;;;5092514;28;20034;-62
2022/10/17 11:45:59;;;;;;;9.13;5.13;;;;;;;;;;5092454;28;20468;-62
2022/10/17 11:48:39;;;;;;;13.68;4.95;;;;;;;;;;5092436;28;20025;-62
2022/10/17 11:51:09;;;;;;;7.60;5.05;;;;;;;;;;5092589;28;20530;-62
2022/10/17 11:53:44;;;;;;;12.05;5.10;;;;;;;;;;5092272;28;20035;-62
2022/10/17 11:56:11;;;;;;;9.77;5.20;;;;;;;;;;5092385;28;20093;-63
2022/10/17 11:58:43;;;;;;;11.50;5.38;;;;;;;;;;5092379;28;20044;-62
2022/10/17 12:01:24;;;;;;;10.73;5.10;;;;;;;;;;5092273;28;20476;-62
2022/10/17 12:04:09;;;;;;;12.13;4.88;;;;;;;;;;5092145;28;20081;-62
2022/10/17 12:06:53;;;;;;;9.15;5.63;;;;;;;;;;5092001;28;20030;-68
2022/10/17 12:09:25;;;;;;;9.10;4.70;;;;;;;;;;5091958;28;20073;-62
2022/10/17 12:11:56;;;;;;;8.15;4.85;;;;;;;;;;5092277;28;20020;-62
2022/10/17 12:14:40;;;;;;;10.98;4.95;;;;;;;;;;5091984;28;20483;-62
2022/10/17 12:17:22;;;;;;;8.63;4.50;;;;;;;;;;5091414;28;20048;-61
2022/10/17 12:19:48;;;;;;;7.90;4.82;;;;;;;;;;5091513;28;20022;-63
2022/10/17 12:22:24;;;;;;;12.50;4.95;;;;;;;;;;5091849;28;20059;-61
2022/10/17 12:25:00;;;;;;;8.75;4.95;;;;;;;;;;5091755;28;20016;-62
2022/10/17 12:27:42;;;;;;;9.90;4.68;;;;;;;;;;5091644;28;20024;-62
2022/10/17 12:30:16;;;;;;;11.30;5.07;;;;;;;;;;5091346;28;20027;-65
2022/10/17 12:32:54;;;;;;;8.45;4.40;;;;;;;;;;5091339;28;20751;-62
2022/10/17 12:35:21;;;;;;;10.70;5.10;;;;;;;;;;5091554;28;20027;-66
2022/10/17 12:37:47;;;;;;;8.15;4.80;;;;;;;;;;5090952;28;20075;-62
2022/10/17 12:40:32;;;;;;;9.45;4.78;;;;;;;;;;5091007;28;20548;-63
2022/10/17 12:42:58;;;;;;;9.48;4.28;;;;;;;;;;5091177;28;20513;-61
2022/10/17 12:45:43;;;;;;;11.98;4.97;;;;;;;;;;5091482;28;20032;-63
2022/10/17 12:48:09;;;;;;;8.52;4.63;;;;;;;;;;5091266;28;20035;-63
2022/10/17 12:51:04;;;;;;;9.45;4.30;;;;;;;;;;5091374;28;20483;-64
2022/10/17 12:53:42;;;;;;;7.95;4.32;;;;;;;;;;4989494;28;20045;-62
2022/10/17 12:56:09;;;;;;;12.63;4.53;;;;;;;;;;4989541;28;20047;-61
2022/10/17 12:58:35;;;;;;;8.70;4.53;;;;;;;;;;4989121;28;20043;-63
2022/10/17 13:01:02;;;;;;;8.13;4.03;;;;;;;;;;4989354;28;20030;-62
2022/10/17 13:03:30;;;;;;;9.02;4.25;;;;;;;;;;4989151;28;20030;-67
2022/10/17 13:06:01;;;;;;;6.90;4.07;;;;;;;;;;4988986;28;20113;-61
2022/10/17 13:08:34;;;;;;;8.48;4.03;;;;;;;;;;4989138;28;20041;-61
2022/10/17 13:11:01;;;;;;;7.65;4.00;;;;;;;;;;4988937;28;20070;-62
2022/10/17 13:13:36;;;;;;;7.13;4.05;;;;;;;;;;4989227;28;20429;-61
2022/10/17 13:16:02;;;;;;;9.75;4.43;;;;;;;;;;4988959;28;20058;-62
2022/10/17 13:18:29;;;;;;;10.50;4.47;;;;;;;;;;4989231;28;20034;-61
2022/10/17 13:20:55;;;;;;;10.13;4.43;;;;;;;;;;4988486;28;20031;-62
2022/10/17 13:23:24;;;;;;;7.50;4.50;;;;;;;;;;4989242;28;20042;-61
2022/10/17 13:26:06;;;;;;;9.60;4.43;;;;;;;;;;4989239;28;20129;-68
2022/10/17 13:28:32;;;;;;;8.60;4.40;;;;;;;;;;4989186;28;20072;-62
2022/10/17 13:30:58;;;;;;;11.52;4.50;;;;;;;;;;5084883;28;20097;-61
2022/10/17 13:33:36;;;;;;;9.00;4.50;;;;;;;;;;5090729;28;20036;-61
2022/10/17 13:36:04;;;;;;;11.30;4.22;;;;;;;;;;5089932;28;20124;-60
2022/10/17 13:38:31;;;;;;;5.97;3.53;;;;;;;;;;5090087;28;20074;-60
2022/10/17 13:40:57;;;;;;;7.55;3.95;;;;;;;;;;5090666;28;20430;-60
2022/10/17 13:43:24;;;;;;;8.05;4.35;;;;;;;;;;5090379;28;20059;-71
2022/10/17 13:45:51;;;;;;;9.27;4.45;;;;;;;;;;5090444;28;20040;-60
2022/10/17 13:48:25;;;;;;;9.88;4.53;;;;;;;;;;5090664;28;20024;-60
2022/10/17 13:50:53;;;;;;;9.88;4.63;;;;;;;;;;5090655;28;20021;-60
2022/10/17 13:53:22;;;;;;;12.18;4.63;;;;;;;;;;5090312;28;20089;-60
2022/10/17 13:55:51;;;;;;;8.52;4.05;;;;;;;;;;5090089;28;20380;-60
2022/10/17 13:58:17;;;;;;;8.45;4.05;;;;;;;;;;5090974;28;20052;-59
2022/10/17 14:00:44;;;;;;;8.32;4.30;;;;;;;;;;5094648;28;20024;-64
2022/10/17 14:03:10;;;;;;;6.38;3.80;;;;;;;;;;5094775;28;20024;-60
2022/10/17 14:05:56;;;;;;;10.40;3.95;;;;;;;;;;5094515;28;20020;-61
2022/10/17 14:08:22;;;;;;;9.20;4.05;;;;;;;;;;5094165;28;20111;-64
2022/10/17 14:10:48;;;;;;;9.15;4.03;;;;;;;;;;5094060;28;20114;-61
2022/10/17 14:13:19;;;;;;;8.77;4.15;;;;;;;;;;5094195;28;20059;-60
2022/10/17 14:15:46;;;;;;;8.23;4.00;;;;;;;;;;5093717;28;20060;-71
2022/10/17 14:18:18;;;;;;;6.80;3.80;;;;;;;;;;5094048;28;20028;-60
2022/10/17 14:20:48;;;;;;;10.40;3.88;;;;;;;;;;5094102;28;20043;-60
2022/10/17 14:23:33;;;;;;;7.57;3.45;;;;;;;;;;5094122;28;20107;-61
2022/10/17 14:26:06;;;;;;;12.55;3.95;;;;;;;;;;5100460;28;20547;-70
2022/10/17 14:28:33;;;;;;;7.30;4.35;;;;;;;;;;5114254;28;20623;-62
2022/10/17 14:31:10;;;;;;;9.00;4.50;;;;;;;;;;5114450;28;20032;-63
2022/10/17 14:33:36;;;;;;;11.65;5.97;;;;;;;;;;5101559;28;20039;-61
2022/10/17 14:36:02;;;;;;;9.73;4.78;;;;;;;;;;5093802;28;20028;-61
2022/10/17 14:38:29;;;;;;;10.38;4.80;;;;;;;;;;5096052;28;20030;-60
2022/10/17 14:41:17;;;;;;;8.00;4.78;;;;;;;;;;5103444;28;20044;-61
2022/10/17 14:43:43;;;;;;;12.05;5.07;;;;;;;;;;5100507;28;20070;-61
2022/10/17 14:46:16;;;;;;;10.57;5.00;;;;;;;;;;5097563;28;20093;-61